BBC Brazil — V7DV7 — position and weather

sailwx.info

Track history (hours):
 
Tides and Currents Weather Stations Pressure Air Temp Water Temp Dewpoint Dewpoint Depression Visibility Wind Speed Wind Dir Waves Ship Positions

BBC Brazil

Last reported at 2017-Sep-22 02:00 UTC. Time now 2017-Sep-25 08:20 UTC.
Position N 01°15' E 103°55'.

Length 228 m; draft 11.8 m.

Type: Ship. MMSI: 538005439.

Date/timePositionNaut miles runAvg speedWind from/ knotsBaromVisibWave heightAir tempDewpointWater temp
2017-Sep-22 02:00N 01°15' E 103°55'0 0.5
2017-Sep-22 01:30N 01°15' E 103°55'0 0.3
2017-Sep-22 00:56N 01°15' E 103°55'0 0.0
2017-Sep-22 00:20N 01°15' E 103°55'0 0.1
2017-Sep-21 23:56N 01°15' E 103°55'0 0.0
2017-Sep-21 23:06N 01°15' E 103°55'0 1.0
2017-Sep-21 22:55N 01°15' E 103°55'0 0.0
2017-Sep-21 21:40N 01°15' E 103°55'0 0.1
2017-Sep-21 20:33N 01°15' E 103°55'0 0.0
2017-Sep-21 20:19N 01°15' E 103°55'0 0.0
2017-Sep-21 19:53N 01°15' E 103°55'0 0.0
2017-Sep-21 19:27N 01°15' E 103°55'0 0.0
2017-Sep-21 18:50N 01°15' E 103°55'0 0.2
2017-Sep-21 18:27N 01°15' E 103°55'0 0.6
2017-Sep-21 18:00N 01°15' E 103°56'713.3
2017-Sep-21 17:29N 01°15' E 104°02'510.9
2017-Sep-21 17:00N 01°15' E 103°57'0 0.2
2017-Sep-21 16:30N 01°16' E 103°57'2 3.6
2017-Sep-21 15:58N 01°15' E 103°55'0 0.1
2017-Sep-21 15:28N 01°15' E 103°55'0 0.0
2017-Sep-21 14:55N 01°15' E 103°55'0 0.0
2017-Sep-21 14:28N 01°15' E 103°55'0 0.1
2017-Sep-21 13:58N 01°15' E 103°55'0 0.1
2017-Sep-21 12:31N 01°15' E 103°55'0 0.0
2017-Sep-21 12:22N 01°15' E 103°55'0 0.1
2017-Sep-21 11:49N 01°15' E 103°55'0 0.2
2017-Sep-21 11:28N 01°15' E 103°55'0 0.0
2017-Sep-21 10:49N 01°15' E 103°55'0 0.0
2017-Sep-21 10:28N 01°15' E 103°55'0 0.0
2017-Sep-21 09:58N 01°15' E 103°55'0 0.0
2017-Sep-21 09:28N 01°15' E 103°55'0 0.0
2017-Sep-21 08:58N 01°15' E 103°55'0 0.0
2017-Sep-21 08:22N 01°15' E 103°55'0 0.1
2017-Sep-21 08:00N 01°15' E 103°55'2 3.4
2017-Sep-21 07:30N 01°16' E 103°57'2 3.5
2017-Sep-21 07:00N 01°14' E 103°57'5 9.7
2017-Sep-21 06:30N 01°12' E 103°52'611.4
2017-Sep-21 06:00N 01°09' E 103°47'4 8.4
2017-Sep-21 05:31N 01°06' E 103°44'4 8.0
2017-Sep-21 05:00N 01°03' E 103°41'3 6.9
2017-Sep-21 04:30N 01°03' E 103°38'4 8.0
2017-Sep-21 04:01N 01°05' E 103°35'4 8.4
2017-Sep-21 03:30N 01°08' E 103°31'610.9
2017-Sep-21 02:59N 01°11' E 103°27'713.6
2017-Sep-21 02:30N 01°15' E 103°21'  
Track history (hours):
 
Tides and Currents Weather Stations Pressure Air Temp Water Temp Dewpoint Dewpoint Depression Visibility Wind Speed Wind Dir Waves Ship Positions

BBC Brazil

Last reported at 2017-Sep-22 02:00 UTC. Time now 2017-Sep-25 08:20 UTC.
Position N 01°15' E 103°55'.

Length 228 m; draft 11.8 m.

Type: Ship. MMSI: 538005439.

Date/timePositionNaut miles runAvg speedWind from/ knotsBaromVisibWave heightAir tempDewpointWater temp
2017-Sep-22 02:00N 01°15' E 103°55'0 0.5
2017-Sep-22 01:30N 01°15' E 103°55'0 0.3
2017-Sep-22 00:56N 01°15' E 103°55'0 0.0
2017-Sep-22 00:20N 01°15' E 103°55'0 0.1
2017-Sep-21 23:56N 01°15' E 103°55'0 0.0
2017-Sep-21 23:06N 01°15' E 103°55'0 1.0
2017-Sep-21 22:55N 01°15' E 103°55'0 0.0
2017-Sep-21 21:40N 01°15' E 103°55'0 0.1
2017-Sep-21 20:33N 01°15' E 103°55'0 0.0
2017-Sep-21 20:19N 01°15' E 103°55'0 0.0
2017-Sep-21 19:53N 01°15' E 103°55'0 0.0
2017-Sep-21 19:27N 01°15' E 103°55'0 0.0
2017-Sep-21 18:50N 01°15' E 103°55'0 0.2
2017-Sep-21 18:27N 01°15' E 103°55'0 0.6
2017-Sep-21 18:00N 01°15' E 103°56'713.3
2017-Sep-21 17:29N 01°15' E 104°02'510.9
2017-Sep-21 17:00N 01°15' E 103°57'0 0.2
2017-Sep-21 16:30N 01°16' E 103°57'2 3.6
2017-Sep-21 15:58N 01°15' E 103°55'0 0.1
2017-Sep-21 15:28N 01°15' E 103°55'0 0.0
2017-Sep-21 14:55N 01°15' E 103°55'0 0.0
2017-Sep-21 14:28N 01°15' E 103°55'0 0.1
2017-Sep-21 13:58N 01°15' E 103°55'0 0.1
2017-Sep-21 12:31N 01°15' E 103°55'0 0.0
2017-Sep-21 12:22N 01°15' E 103°55'0 0.1
2017-Sep-21 11:49N 01°15' E 103°55'0 0.2
2017-Sep-21 11:28N 01°15' E 103°55'0 0.0
2017-Sep-21 10:49N 01°15' E 103°55'0 0.0
2017-Sep-21 10:28N 01°15' E 103°55'0 0.0
2017-Sep-21 09:58N 01°15' E 103°55'0 0.0
2017-Sep-21 09:28N 01°15' E 103°55'0 0.0
2017-Sep-21 08:58N 01°15' E 103°55'0 0.0
2017-Sep-21 08:22N 01°15' E 103°55'0 0.1
2017-Sep-21 08:00N 01°15' E 103°55'2 3.4
2017-Sep-21 07:30N 01°16' E 103°57'2 3.5
2017-Sep-21 07:00N 01°14' E 103°57'5 9.7
2017-Sep-21 06:30N 01°12' E 103°52'611.4
2017-Sep-21 06:00N 01°09' E 103°47'4 8.4
2017-Sep-21 05:31N 01°06' E 103°44'4 8.0
2017-Sep-21 05:00N 01°03' E 103°41'3 6.9
2017-Sep-21 04:30N 01°03' E 103°38'4 8.0
2017-Sep-21 04:01N 01°05' E 103°35'4 8.4
2017-Sep-21 03:30N 01°08' E 103°31'610.9
2017-Sep-21 02:59N 01°11' E 103°27'713.6
2017-Sep-21 02:30N 01°15' E 103°21'  

Dump ship's entire track history